sensor_id;sensor_type;location;lat;lon;timestamp;P1;durP1;ratioP1;P2;durP2;ratioP2
4500;SDS011;2263;54.654;9.410;2022-08-11T00:01:24;2.73;;;1.90;;
4500;SDS011;2263;54.654;9.410;2022-08-11T00:03:57;1.40;;;1.27;;
4500;SDS011;2263;54.654;9.410;2022-08-11T00:06:27;1.90;;;1.80;;
4500;SDS011;2263;54.654;9.410;2022-08-11T00:08:57;1.33;;;1.23;;
4500;SDS011;2263;54.654;9.410;2022-08-11T00:11:32;1.80;;;1.70;;
4500;SDS011;2263;54.654;9.410;2022-08-11T00:14:16;3.60;;;1.20;;
4500;SDS011;2263;54.654;9.410;2022-08-11T00:16:59;3.80;;;2.43;;
4500;SDS011;2263;54.654;9.410;2022-08-11T00:19:38;1.80;;;1.70;;
4500;SDS011;2263;54.654;9.410;2022-08-11T00:22:29;1.60;;;1.50;;
4500;SDS011;2263;54.654;9.410;2022-08-11T00:24:57;2.03;;;1.93;;
4500;SDS011;2263;54.654;9.410;2022-08-11T00:27:35;3.30;;;1.90;;
4500;SDS011;2263;54.654;9.410;2022-08-11T00:30:04;2.00;;;1.80;;
4500;SDS011;2263;54.654;9.410;2022-08-11T00:32:37;1.83;;;1.60;;
4500;SDS011;2263;54.654;9.410;2022-08-11T00:35:13;4.50;;;1.50;;
4500;SDS011;2263;54.654;9.410;2022-08-11T00:38:03;3.30;;;1.70;;
4500;SDS011;2263;54.654;9.410;2022-08-11T00:40:43;1.83;;;1.73;;
4500;SDS011;2263;54.654;9.410;2022-08-11T00:49:35;1.73;;;1.63;;
4500;SDS011;2263;54.654;9.410;2022-08-11T00:52:15;2.10;;;2.00;;
4500;SDS011;2263;54.654;9.410;2022-08-11T01:48:18;3.30;;;2.97;;
4500;SDS011;2263;54.654;9.410;2022-08-11T02:16:47;4.57;;;3.30;;
4500;SDS011;2263;54.654;9.410;2022-08-11T02:19:54;2.37;;;2.17;;
4500;SDS011;2263;54.654;9.410;2022-08-11T02:22:57;4.53;;;3.30;;
4500;SDS011;2263;54.654;9.410;2022-08-11T02:26:08;3.40;;;2.87;;
4500;SDS011;2263;54.654;9.410;2022-08-11T02:40:10;4.87;;;4.47;;
4500;SDS011;2263;54.654;9.410;2022-08-11T02:50:35;4.00;;;3.73;;
4500;SDS011;2263;54.654;9.410;2022-08-11T02:53:11;4.20;;;3.80;;
4500;SDS011;2263;54.654;9.410;2022-08-11T03:01:49;3.97;;;3.67;;
4500;SDS011;2263;54.654;9.410;2022-08-11T03:04:36;4.60;;;4.20;;
4500;SDS011;2263;54.654;9.410;2022-08-11T03:10:28;3.60;;;3.30;;
4500;SDS011;2263;54.654;9.410;2022-08-11T03:13:15;6.53;;;3.17;;
4500;SDS011;2263;54.654;9.410;2022-08-11T03:21:58;3.17;;;2.93;;
4500;SDS011;2263;54.654;9.410;2022-08-11T03:24:42;4.30;;;3.90;;
4500;SDS011;2263;54.654;9.410;2022-08-11T03:30:25;3.50;;;2.83;;
4500;SDS011;2263;54.654;9.410;2022-08-11T03:45:33;6.70;;;4.37;;
4500;SDS011;2263;54.654;9.410;2022-08-11T03:47:54;3.23;;;2.70;;
4500;SDS011;2263;54.654;9.410;2022-08-11T03:50:28;2.93;;;2.73;;
4500;SDS011;2263;54.654;9.410;2022-08-11T03:53:17;10.07;;;3.60;;
4500;SDS011;2263;54.654;9.410;2022-08-11T03:58:56;2.83;;;2.63;;
4500;SDS011;2263;54.654;9.410;2022-08-11T04:10:08;3.50;;;2.50;;
4500;SDS011;2263;54.654;9.410;2022-08-11T04:13:08;2.73;;;2.53;;
4500;SDS011;2263;54.654;9.410;2022-08-11T04:24:24;3.13;;;2.90;;
4500;SDS011;2263;54.654;9.410;2022-08-11T05:16:59;3.93;;;3.63;;
4500;SDS011;2263;54.654;9.410;2022-08-11T05:19:52;4.33;;;4.03;;
4500;SDS011;2263;54.654;9.410;2022-08-11T05:22:41;3.33;;;3.03;;
4500;SDS011;2263;54.654;9.410;2022-08-11T05:25:33;3.40;;;2.87;;
4500;SDS011;2263;54.654;9.410;2022-08-11T05:28:41;3.03;;;2.83;;
4500;SDS011;2263;54.654;9.410;2022-08-11T05:31:50;3.90;;;2.83;;
4500;SDS011;2263;54.654;9.410;2022-08-11T05:34:47;3.50;;;3.20;;
4500;SDS011;2263;54.654;9.410;2022-08-11T05:39:56;3.23;;;2.93;;
4500;SDS011;2263;54.654;9.410;2022-08-11T05:42:58;2.90;;;2.70;;
4500;SDS011;2263;54.654;9.410;2022-08-11T05:45:56;3.33;;;3.13;;
4500;SDS011;2263;54.654;9.410;2022-08-11T05:48:43;2.40;;;2.27;;
4500;SDS011;2263;54.654;9.410;2022-08-11T05:51:33;6.43;;;3.07;;
4500;SDS011;2263;54.654;9.410;2022-08-11T05:54:32;3.30;;;3.00;;
4500;SDS011;2263;54.654;9.410;2022-08-11T05:57:20;2.73;;;2.30;;
4500;SDS011;2263;54.654;9.410;2022-08-11T06:00:15;2.97;;;2.77;;
4500;SDS011;2263;54.654;9.410;2022-08-11T06:02:48;2.90;;;2.70;;
4500;SDS011;2263;54.654;9.410;2022-08-11T06:05:17;3.10;;;2.80;;
4500;SDS011;2263;54.654;9.410;2022-08-11T06:07:45;2.20;;;2.00;;
4500;SDS011;2263;54.654;9.410;2022-08-11T06:10:51;2.70;;;2.50;;
4500;SDS011;2263;54.654;9.410;2022-08-11T06:13:15;2.60;;;2.50;;
4500;SDS011;2263;54.654;9.410;2022-08-11T06:15:47;1.87;;;1.73;;
4500;SDS011;2263;54.654;9.410;2022-08-11T06:18:16;2.43;;;2.23;;
4500;SDS011;2263;54.654;9.410;2022-08-11T06:20:45;4.40;;;2.30;;
4500;SDS011;2263;54.654;9.410;2022-08-11T06:23:13;2.30;;;2.00;;
4500;SDS011;2263;54.654;9.410;2022-08-11T06:25:44;6.43;;;3.37;;
4500;SDS011;2263;54.654;9.410;2022-08-11T06:28:12;2.63;;;2.23;;
4500;SDS011;2263;54.654;9.410;2022-08-11T06:30:46;3.13;;;2.20;;
4500;SDS011;2263;54.654;9.410;2022-08-11T06:33:28;2.80;;;2.47;;
4500;SDS011;2263;54.654;9.410;2022-08-11T06:36:01;3.03;;;1.87;;
4500;SDS011;2263;54.654;9.410;2022-08-11T06:44:20;2.27;;;2.17;;
4500;SDS011;2263;54.654;9.410;2022-08-11T06:47:04;2.63;;;1.87;;
4500;SDS011;2263;54.654;9.410;2022-08-11T06:49:35;2.50;;;2.30;;
4500;SDS011;2263;54.654;9.410;2022-08-11T06:52:30;2.43;;;2.20;;
4500;SDS011;2263;54.654;9.410;2022-08-11T06:55:10;3.20;;;1.90;;
4500;SDS011;2263;54.654;9.410;2022-08-11T06:57:57;2.43;;;2.20;;
4500;SDS011;2263;54.654;9.410;2022-08-11T07:01:03;11.20;;;3.47;;
4500;SDS011;2263;54.654;9.410;2022-08-11T07:03:46;14.23;;;4.07;;
4500;SDS011;2263;54.654;9.410;2022-08-11T07:15:32;9.53;;;3.33;;
4500;SDS011;2263;54.654;9.410;2022-08-11T07:18:28;4.00;;;2.17;;
4500;SDS011;2263;54.654;9.410;2022-08-11T07:21:31;4.83;;;2.17;;
4500;SDS011;2263;54.654;9.410;2022-08-11T07:24:29;4.70;;;2.80;;
4500;SDS011;2263;54.654;9.410;2022-08-11T07:27:29;3.03;;;2.07;;
4500;SDS011;2263;54.654;9.410;2022-08-11T07:30:21;5.83;;;2.00;;
4500;SDS011;2263;54.654;9.410;2022-08-11T07:32:52;3.50;;;2.17;;
4500;SDS011;2263;54.654;9.410;2022-08-11T07:35:41;14.17;;;2.90;;
4500;SDS011;2263;54.654;9.410;2022-08-11T07:38:20;5.30;;;2.37;;
4500;SDS011;2263;54.654;9.410;2022-08-11T07:41:11;1.73;;;1.63;;
4500;SDS011;2263;54.654;9.410;2022-08-11T07:43:41;2.03;;;1.93;;
4500;SDS011;2263;54.654;9.410;2022-08-11T07:46:09;2.93;;;2.43;;
4500;SDS011;2263;54.654;9.410;2022-08-11T07:48:56;2.37;;;2.17;;
4500;SDS011;2263;54.654;9.410;2022-08-11T07:51:43;2.27;;;2.10;;
4500;SDS011;2263;54.654;9.410;2022-08-11T07:54:29;3.10;;;1.97;;
4500;SDS011;2263;54.654;9.410;2022-08-11T07:56:58;1.90;;;1.80;;
4500;SDS011;2263;54.654;9.410;2022-08-11T07:59:34;3.27;;;2.97;;
4500;SDS011;2263;54.654;9.410;2022-08-11T08:02:30;3.00;;;2.47;;
4500;SDS011;2263;54.654;9.410;2022-08-11T08:05:16;2.40;;;2.23;;
4500;SDS011;2263;54.654;9.410;2022-08-11T08:08:03;2.70;;;2.03;;
4500;SDS011;2263;54.654;9.410;2022-08-11T08:10:51;1.93;;;1.83;;
4500;SDS011;2263;54.654;9.410;2022-08-11T08:13:41;3.40;;;2.00;;
4500;SDS011;2263;54.654;9.410;2022-08-11T08:16:28;2.07;;;1.70;;
4500;SDS011;2263;54.654;9.410;2022-08-11T08:19:15;2.40;;;2.20;;
4500;SDS011;2263;54.654;9.410;2022-08-11T08:21:44;2.07;;;1.87;;
4500;SDS011;2263;54.654;9.410;2022-08-11T08:24:13;1.90;;;1.80;;
4500;SDS011;2263;54.654;9.410;2022-08-11T08:26:42;1.73;;;1.63;;
4500;SDS011;2263;54.654;9.410;2022-08-11T08:29:30;1.90;;;1.70;;
4500;SDS011;2263;54.654;9.410;2022-08-11T08:32:18;2.17;;;2.03;;
4500;SDS011;2263;54.654;9.410;2022-08-11T08:34:50;2.87;;;2.00;;
4500;SDS011;2263;54.654;9.410;2022-08-11T08:37:20;2.30;;;2.10;;
4500;SDS011;2263;54.654;9.410;2022-08-11T08:40:12;3.37;;;1.73;;
4500;SDS011;2263;54.654;9.410;2022-08-11T08:42:49;3.33;;;1.53;;
4500;SDS011;2263;54.654;9.410;2022-08-11T08:45:22;1.70;;;1.60;;
4500;SDS011;2263;54.654;9.410;2022-08-11T08:47:59;3.57;;;2.73;;
4500;SDS011;2263;54.654;9.410;2022-08-11T08:50:33;2.37;;;2.10;;
4500;SDS011;2263;54.654;9.410;2022-08-11T08:53:26;3.40;;;2.30;;
4500;SDS011;2263;54.654;9.410;2022-08-11T08:55:59;2.10;;;1.90;;
4500;SDS011;2263;54.654;9.410;2022-08-11T08:58:27;1.90;;;1.80;;
4500;SDS011;2263;54.654;9.410;2022-08-11T09:00:57;2.97;;;2.27;;
4500;SDS011;2263;54.654;9.410;2022-08-11T09:03:25;2.50;;;2.10;;
4500;SDS011;2263;54.654;9.410;2022-08-11T09:06:13;1.67;;;1.53;;
4500;SDS011;2263;54.654;9.410;2022-08-11T09:08:43;1.70;;;1.53;;
4500;SDS011;2263;54.654;9.410;2022-08-11T09:11:14;3.50;;;1.60;;
4500;SDS011;2263;54.654;9.410;2022-08-11T09:14:01;3.70;;;1.50;;
4500;SDS011;2263;54.654;9.410;2022-08-11T09:16:35;1.80;;;1.70;;
4500;SDS011;2263;54.654;9.410;2022-08-11T09:19:04;2.90;;;1.67;;
4500;SDS011;2263;54.654;9.410;2022-08-11T09:21:33;2.07;;;1.87;;
4500;SDS011;2263;54.654;9.410;2022-08-11T09:24:14;3.00;;;1.60;;
4500;SDS011;2263;54.654;9.410;2022-08-11T09:27:03;1.77;;;1.67;;
4500;SDS011;2263;54.654;9.410;2022-08-11T09:29:32;2.60;;;2.40;;
4500;SDS011;2263;54.654;9.410;2022-08-11T09:32:00;2.10;;;1.70;;
4500;SDS011;2263;54.654;9.410;2022-08-11T09:34:28;1.80;;;1.70;;
4500;SDS011;2263;54.654;9.410;2022-08-11T09:36:56;2.33;;;1.80;;
4500;SDS011;2263;54.654;9.410;2022-08-11T09:40:03;1.70;;;1.20;;
4500;SDS011;2263;54.654;9.410;2022-08-11T09:42:53;1.50;;;1.40;;
4500;SDS011;2263;54.654;9.410;2022-08-11T09:45:44;1.63;;;1.30;;
4500;SDS011;2263;54.654;9.410;2022-08-11T09:48:22;1.70;;;1.50;;
4500;SDS011;2263;54.654;9.410;2022-08-11T09:50:52;1.70;;;1.60;;
4500;SDS011;2263;54.654;9.410;2022-08-11T09:53:21;1.90;;;1.70;;
4500;SDS011;2263;54.654;9.410;2022-08-11T09:56:04;1.60;;;1.50;;
4500;SDS011;2263;54.654;9.410;2022-08-11T09:58:53;2.13;;;1.50;;
4500;SDS011;2263;54.654;9.410;2022-08-11T10:01:21;1.97;;;1.83;;
4500;SDS011;2263;54.654;9.410;2022-08-11T10:04:00;1.30;;;1.20;;
4500;SDS011;2263;54.654;9.410;2022-08-11T10:06:30;3.67;;;1.30;;
4500;SDS011;2263;54.654;9.410;2022-08-11T10:09:20;1.60;;;1.50;;
4500;SDS011;2263;54.654;9.410;2022-08-11T10:11:55;1.97;;;1.40;;
4500;SDS011;2263;54.654;9.410;2022-08-11T10:14:24;1.60;;;1.47;;
4500;SDS011;2263;54.654;9.410;2022-08-11T10:17:12;3.23;;;2.40;;
4500;SDS011;2263;54.654;9.410;2022-08-11T10:19:42;2.33;;;1.80;;
4500;SDS011;2263;54.654;9.410;2022-08-11T10:22:31;3.70;;;1.60;;
4500;SDS011;2263;54.654;9.410;2022-08-11T10:25:17;1.70;;;1.60;;
4500;SDS011;2263;54.654;9.410;2022-08-11T10:28:06;2.23;;;2.13;;
4500;SDS011;2263;54.654;9.410;2022-08-11T10:30:55;2.80;;;2.10;;
4500;SDS011;2263;54.654;9.410;2022-08-11T10:33:43;2.00;;;1.90;;
4500;SDS011;2263;54.654;9.410;2022-08-11T10:36:27;1.20;;;1.10;;
4500;SDS011;2263;54.654;9.410;2022-08-11T10:39:00;2.40;;;1.80;;
4500;SDS011;2263;54.654;9.410;2022-08-11T10:41:30;3.80;;;3.43;;
4500;SDS011;2263;54.654;9.410;2022-08-11T10:44:42;5.50;;;1.87;;
4500;SDS011;2263;54.654;9.410;2022-08-11T10:47:13;2.00;;;1.83;;
4500;SDS011;2263;54.654;9.410;2022-08-11T10:50:01;3.93;;;2.63;;
4500;SDS011;2263;54.654;9.410;2022-08-11T10:52:49;1.83;;;1.73;;
4500;SDS011;2263;54.654;9.410;2022-08-11T10:55:35;2.10;;;1.90;;
4500;SDS011;2263;54.654;9.410;2022-08-11T10:58:24;1.80;;;1.50;;
4500;SDS011;2263;54.654;9.410;2022-08-11T11:01:13;2.00;;;1.90;;
4500;SDS011;2263;54.654;9.410;2022-08-11T11:03:42;1.90;;;1.70;;
4500;SDS011;2263;54.654;9.410;2022-08-11T11:09:11;2.17;;;1.90;;
4500;SDS011;2263;54.654;9.410;2022-08-11T11:11:55;1.60;;;1.50;;
4500;SDS011;2263;54.654;9.410;2022-08-11T11:14:43;2.47;;;1.40;;
4500;SDS011;2263;54.654;9.410;2022-08-11T11:17:36;4.93;;;2.13;;
4500;SDS011;2263;54.654;9.410;2022-08-11T11:20:24;1.80;;;1.70;;
4500;SDS011;2263;54.654;9.410;2022-08-11T11:23:05;2.30;;;2.10;;
4500;SDS011;2263;54.654;9.410;2022-08-11T11:26:02;2.80;;;1.43;;
4500;SDS011;2263;54.654;9.410;2022-08-11T11:31:40;2.23;;;1.43;;
4500;SDS011;2263;54.654;9.410;2022-08-11T11:39:24;2.70;;;1.83;;
4500;SDS011;2263;54.654;9.410;2022-08-11T11:41:54;2.13;;;1.70;;
4500;SDS011;2263;54.654;9.410;2022-08-11T11:44:23;1.90;;;1.73;;
4500;SDS011;2263;54.654;9.410;2022-08-11T11:46:51;2.23;;;2.13;;
4500;SDS011;2263;54.654;9.410;2022-08-11T11:49:20;2.37;;;1.80;;
4500;SDS011;2263;54.654;9.410;2022-08-11T11:51:55;1.77;;;1.67;;
4500;SDS011;2263;54.654;9.410;2022-08-11T11:54:25;2.40;;;2.07;;
4500;SDS011;2263;54.654;9.410;2022-08-11T11:56:55;2.13;;;1.67;;
4500;SDS011;2263;54.654;9.410;2022-08-11T11:59:44;2.73;;;1.90;;
4500;SDS011;2263;54.654;9.410;2022-08-11T12:02:30;1.77;;;1.67;;
4500;SDS011;2263;54.654;9.410;2022-08-11T12:04:57;1.60;;;1.50;;
4500;SDS011;2263;54.654;9.410;2022-08-11T12:07:28;1.93;;;1.83;;
4500;SDS011;2263;54.654;9.410;2022-08-11T12:10:34;1.83;;;1.73;;
4500;SDS011;2263;54.654;9.410;2022-08-11T12:13:02;2.27;;;1.53;;
4500;SDS011;2263;54.654;9.410;2022-08-11T12:15:49;2.37;;;1.73;;
4500;SDS011;2263;54.654;9.410;2022-08-11T12:18:37;1.97;;;1.87;;
4500;SDS011;2263;54.654;9.410;2022-08-11T12:21:07;1.63;;;1.43;;
4500;SDS011;2263;54.654;9.410;2022-08-11T12:23:36;1.67;;;1.40;;
4500;SDS011;2263;54.654;9.410;2022-08-11T12:26:29;1.70;;;1.60;;
4500;SDS011;2263;54.654;9.410;2022-08-11T12:29:36;2.40;;;2.20;;
4500;SDS011;2263;54.654;9.410;2022-08-11T12:32:09;3.50;;;2.17;;
4500;SDS011;2263;54.654;9.410;2022-08-11T12:34:37;2.17;;;1.97;;
4500;SDS011;2263;54.654;9.410;2022-08-11T12:37:04;2.07;;;1.97;;
4500;SDS011;2263;54.654;9.410;2022-08-11T12:39:49;2.77;;;1.90;;
4500;SDS011;2263;54.654;9.410;2022-08-11T12:42:58;1.90;;;1.77;;
4500;SDS011;2263;54.654;9.410;2022-08-11T12:46:09;3.67;;;2.00;;
4500;SDS011;2263;54.654;9.410;2022-08-11T12:48:48;2.27;;;2.13;;
4500;SDS011;2263;54.654;9.410;2022-08-11T12:51:41;2.80;;;1.77;;
4500;SDS011;2263;54.654;9.410;2022-08-11T12:57:16;9.17;;;8.20;;
4500;SDS011;2263;54.654;9.410;2022-08-11T13:00:08;11.40;;;9.23;;
4500;SDS011;2263;54.654;9.410;2022-08-11T13:02:55;8.00;;;7.40;;
4500;SDS011;2263;54.654;9.410;2022-08-11T13:05:41;10.63;;;9.60;;
4500;SDS011;2263;54.654;9.410;2022-08-11T13:08:11;7.30;;;6.73;;
4500;SDS011;2263;54.654;9.410;2022-08-11T13:10:42;6.40;;;5.80;;
4500;SDS011;2263;54.654;9.410;2022-08-11T13:13:30;5.83;;;5.30;;
4500;SDS011;2263;54.654;9.410;2022-08-11T13:16:18;5.80;;;4.97;;
4500;SDS011;2263;54.654;9.410;2022-08-11T13:19:18;5.53;;;5.20;;
4500;SDS011;2263;54.654;9.410;2022-08-11T13:21:50;5.20;;;4.40;;
4500;SDS011;2263;54.654;9.410;2022-08-11T13:24:19;5.40;;;4.90;;
4500;SDS011;2263;54.654;9.410;2022-08-11T13:26:47;3.97;;;3.67;;
4500;SDS011;2263;54.654;9.410;2022-08-11T13:29:19;4.20;;;3.90;;
4500;SDS011;2263;54.654;9.410;2022-08-11T13:31:50;4.83;;;4.50;;
4500;SDS011;2263;54.654;9.410;2022-08-11T13:34:20;4.77;;;4.50;;
4500;SDS011;2263;54.654;9.410;2022-08-11T13:36:51;4.67;;;4.27;;
4500;SDS011;2263;54.654;9.410;2022-08-11T13:39:21;3.80;;;3.60;;
4500;SDS011;2263;54.654;9.410;2022-08-11T13:41:54;4.30;;;4.00;;
4500;SDS011;2263;54.654;9.410;2022-08-11T13:44:28;3.23;;;3.03;;
4500;SDS011;2263;54.654;9.410;2022-08-11T13:46:58;3.23;;;3.03;;
4500;SDS011;2263;54.654;9.410;2022-08-11T13:49:30;4.13;;;2.90;;
4500;SDS011;2263;54.654;9.410;2022-08-11T13:51:59;3.40;;;3.20;;
4500;SDS011;2263;54.654;9.410;2022-08-11T13:54:28;3.23;;;3.03;;
4500;SDS011;2263;54.654;9.410;2022-08-11T13:57:02;3.43;;;3.23;;
4500;SDS011;2263;54.654;9.410;2022-08-11T13:59:39;3.07;;;2.87;;
4500;SDS011;2263;54.654;9.410;2022-08-11T14:02:18;3.83;;;2.70;;
4500;SDS011;2263;54.654;9.410;2022-08-11T14:04:57;3.33;;;3.13;;
4500;SDS011;2263;54.654;9.410;2022-08-11T14:07:33;2.80;;;2.60;;
4500;SDS011;2263;54.654;9.410;2022-08-11T14:10:05;4.87;;;3.10;;
4500;SDS011;2263;54.654;9.410;2022-08-11T14:12:34;2.73;;;2.53;;
4500;SDS011;2263;54.654;9.410;2022-08-11T14:15:23;3.97;;;3.60;;
4500;SDS011;2263;54.654;9.410;2022-08-11T14:17:58;4.00;;;2.73;;
4500;SDS011;2263;54.654;9.410;2022-08-11T14:20:30;3.00;;;2.50;;
4500;SDS011;2263;54.654;9.410;2022-08-11T14:23:20;3.20;;;2.27;;
4500;SDS011;2263;54.654;9.410;2022-08-11T14:25:55;3.50;;;2.60;;
4500;SDS011;2263;54.654;9.410;2022-08-11T14:28:41;4.87;;;2.73;;
4500;SDS011;2263;54.654;9.410;2022-08-11T14:31:11;2.87;;;2.67;;
4500;SDS011;2263;54.654;9.410;2022-08-11T14:33:40;2.70;;;2.50;;
4500;SDS011;2263;54.654;9.410;2022-08-11T14:36:32;4.50;;;2.73;;
4500;SDS011;2263;54.654;9.410;2022-08-11T14:39:07;2.97;;;2.77;;
4500;SDS011;2263;54.654;9.410;2022-08-11T14:41:41;2.23;;;2.00;;
4500;SDS011;2263;54.654;9.410;2022-08-11T14:44:39;2.50;;;2.30;;
4500;SDS011;2263;54.654;9.410;2022-08-11T14:47:31;5.53;;;2.17;;
4500;SDS011;2263;54.654;9.410;2022-08-11T14:50:00;2.73;;;2.53;;
4500;SDS011;2263;54.654;9.410;2022-08-11T14:52:37;3.00;;;2.47;;
4500;SDS011;2263;54.654;9.410;2022-08-11T14:55:26;3.10;;;2.90;;
4500;SDS011;2263;54.654;9.410;2022-08-11T14:58:15;7.37;;;3.00;;
4500;SDS011;2263;54.654;9.410;2022-08-11T15:00:44;4.83;;;2.47;;
4500;SDS011;2263;54.654;9.410;2022-08-11T15:03:13;2.97;;;2.43;;
4500;SDS011;2263;54.654;9.410;2022-08-11T15:05:43;3.07;;;2.87;;
4500;SDS011;2263;54.654;9.410;2022-08-11T15:08:24;2.53;;;2.33;;
4500;SDS011;2263;54.654;9.410;2022-08-11T15:11:14;2.87;;;2.77;;
4500;SDS011;2263;54.654;9.410;2022-08-11T15:14:05;2.13;;;2.03;;
4500;SDS011;2263;54.654;9.410;2022-08-11T15:16:35;2.57;;;2.37;;
4500;SDS011;2263;54.654;9.410;2022-08-11T15:19:24;2.63;;;2.20;;
4500;SDS011;2263;54.654;9.410;2022-08-11T15:22:01;2.50;;;2.40;;
4500;SDS011;2263;54.654;9.410;2022-08-11T15:24:53;2.90;;;2.70;;
4500;SDS011;2263;54.654;9.410;2022-08-11T15:27:20;2.97;;;2.77;;
4500;SDS011;2263;54.654;9.410;2022-08-11T15:30:07;2.10;;;1.90;;
4500;SDS011;2263;54.654;9.410;2022-08-11T15:33:03;2.47;;;2.27;;
4500;SDS011;2263;54.654;9.410;2022-08-11T15:35:51;2.50;;;2.30;;
4500;SDS011;2263;54.654;9.410;2022-08-11T15:38:39;3.20;;;2.23;;
4500;SDS011;2263;54.654;9.410;2022-08-11T15:41:21;5.60;;;1.80;;
4500;SDS011;2263;54.654;9.410;2022-08-11T15:44:28;9.83;;;5.73;;
4500;SDS011;2263;54.654;9.410;2022-08-11T15:47:43;3.60;;;3.27;;
4500;SDS011;2263;54.654;9.410;2022-08-11T15:50:16;5.90;;;5.43;;
4500;SDS011;2263;54.654;9.410;2022-08-11T15:52:47;4.30;;;4.00;;
4500;SDS011;2263;54.654;9.410;2022-08-11T15:55:18;2.60;;;2.33;;
4500;SDS011;2263;54.654;9.410;2022-08-11T15:57:49;3.07;;;2.10;;
4500;SDS011;2263;54.654;9.410;2022-08-11T16:00:37;4.00;;;2.70;;
4500;SDS011;2263;54.654;9.410;2022-08-11T16:04:08;7.10;;;2.10;;
4500;SDS011;2263;54.654;9.410;2022-08-11T16:09:22;4.63;;;2.30;;
4500;SDS011;2263;54.654;9.410;2022-08-11T16:12:11;2.50;;;2.30;;
4500;SDS011;2263;54.654;9.410;2022-08-11T16:14:45;6.03;;;2.10;;
4500;SDS011;2263;54.654;9.410;2022-08-11T16:17:39;2.10;;;1.90;;
4500;SDS011;2263;54.654;9.410;2022-08-11T16:20:10;1.80;;;1.67;;
4500;SDS011;2263;54.654;9.410;2022-08-11T16:22:39;2.03;;;1.80;;
4500;SDS011;2263;54.654;9.410;2022-08-11T16:25:27;2.73;;;2.00;;
4500;SDS011;2263;54.654;9.410;2022-08-11T16:28:18;2.37;;;1.90;;
4500;SDS011;2263;54.654;9.410;2022-08-11T16:30:47;1.63;;;1.50;;
4500;SDS011;2263;54.654;9.410;2022-08-11T16:33:16;1.80;;;1.70;;
4500;SDS011;2263;54.654;9.410;2022-08-11T16:36:08;2.70;;;1.77;;
4500;SDS011;2263;54.654;9.410;2022-08-11T16:38:55;1.43;;;1.33;;
4500;SDS011;2263;54.654;9.410;2022-08-11T16:41:24;5.40;;;2.10;;
4500;SDS011;2263;54.654;9.410;2022-08-11T17:48:47;2.57;;;2.47;;
4500;SDS011;2263;54.654;9.410;2022-08-11T17:51:18;2.53;;;1.80;;
4500;SDS011;2263;54.654;9.410;2022-08-11T17:54:05;3.53;;;1.83;;
4500;SDS011;2263;54.654;9.410;2022-08-11T17:56:53;12.30;;;2.80;;
4500;SDS011;2263;54.654;9.410;2022-08-11T17:59:46;2.40;;;2.20;;
4500;SDS011;2263;54.654;9.410;2022-08-11T18:02:29;2.00;;;1.90;;
4500;SDS011;2263;54.654;9.410;2022-08-11T18:05:20;2.60;;;1.63;;
4500;SDS011;2263;54.654;9.410;2022-08-11T18:07:53;3.33;;;1.93;;
4500;SDS011;2263;54.654;9.410;2022-08-11T18:10:41;1.90;;;1.80;;
4500;SDS011;2263;54.654;9.410;2022-08-11T18:13:29;2.47;;;1.40;;
4500;SDS011;2263;54.654;9.410;2022-08-11T18:16:20;2.43;;;2.10;;
4500;SDS011;2263;54.654;9.410;2022-08-11T18:19:07;1.93;;;1.80;;
4500;SDS011;2263;54.654;9.410;2022-08-11T18:22:00;3.30;;;2.53;;
4500;SDS011;2263;54.654;9.410;2022-08-11T18:24:54;4.47;;;2.80;;
4500;SDS011;2263;54.654;9.410;2022-08-11T18:27:47;3.20;;;1.67;;
4500;SDS011;2263;54.654;9.410;2022-08-11T18:30:37;2.00;;;1.77;;
4500;SDS011;2263;54.654;9.410;2022-08-11T18:33:32;3.60;;;1.80;;
4500;SDS011;2263;54.654;9.410;2022-08-11T18:36:37;1.93;;;1.83;;
4500;SDS011;2263;54.654;9.410;2022-08-11T18:39:28;2.57;;;1.67;;
4500;SDS011;2263;54.654;9.410;2022-08-11T18:42:22;2.10;;;2.00;;
4500;SDS011;2263;54.654;9.410;2022-08-11T18:45:10;5.30;;;1.60;;
4500;SDS011;2263;54.654;9.410;2022-08-11T18:48:16;2.10;;;1.67;;
4500;SDS011;2263;54.654;9.410;2022-08-11T18:51:08;2.00;;;1.67;;
4500;SDS011;2263;54.654;9.410;2022-08-11T18:54:06;5.37;;;1.90;;
4500;SDS011;2263;54.654;9.410;2022-08-11T18:56:55;6.33;;;1.60;;
4500;SDS011;2263;54.654;9.410;2022-08-11T18:59:45;1.87;;;1.70;;
4500;SDS011;2263;54.654;9.410;2022-08-11T19:02:33;4.03;;;1.80;;
4500;SDS011;2263;54.654;9.410;2022-08-11T19:05:22;3.80;;;1.93;;
4500;SDS011;2263;54.654;9.410;2022-08-11T19:08:29;8.93;;;1.87;;
4500;SDS011;2263;54.654;9.410;2022-08-11T19:11:22;5.30;;;2.07;;
4500;SDS011;2263;54.654;9.410;2022-08-11T19:14:11;3.20;;;2.07;;
4500;SDS011;2263;54.654;9.410;2022-08-11T19:16:59;5.87;;;3.10;;
4500;SDS011;2263;54.654;9.410;2022-08-11T19:20:07;1.70;;;1.60;;
4500;SDS011;2263;54.654;9.410;2022-08-11T19:22:57;5.20;;;1.73;;
4500;SDS011;2263;54.654;9.410;2022-08-11T19:25:44;2.70;;;1.57;;
4500;SDS011;2263;54.654;9.410;2022-08-11T19:28:32;5.07;;;2.33;;
4500;SDS011;2263;54.654;9.410;2022-08-11T19:31:19;11.63;;;4.60;;
4500;SDS011;2263;54.654;9.410;2022-08-11T19:34:12;7.73;;;5.40;;
4500;SDS011;2263;54.654;9.410;2022-08-11T19:37:00;4.70;;;3.40;;
4500;SDS011;2263;54.654;9.410;2022-08-11T19:39:58;3.40;;;2.53;;
4500;SDS011;2263;54.654;9.410;2022-08-11T19:42:51;2.90;;;2.03;;
4500;SDS011;2263;54.654;9.410;2022-08-11T19:45:52;35.77;;;3.53;;
4500;SDS011;2263;54.654;9.410;2022-08-11T19:48:40;3.60;;;2.03;;
4500;SDS011;2263;54.654;9.410;2022-08-11T19:51:27;5.43;;;2.20;;
4500;SDS011;2263;54.654;9.410;2022-08-11T19:54:19;4.50;;;2.20;;
4500;SDS011;2263;54.654;9.410;2022-08-11T19:57:12;4.03;;;2.13;;
4500;SDS011;2263;54.654;9.410;2022-08-11T20:00:06;3.87;;;1.83;;
4500;SDS011;2263;54.654;9.410;2022-08-11T20:02:56;5.73;;;3.40;;
4500;SDS011;2263;54.654;9.410;2022-08-11T20:05:44;3.20;;;1.33;;
4500;SDS011;2263;54.654;9.410;2022-08-11T20:08:33;6.27;;;1.90;;
4500;SDS011;2263;54.654;9.410;2022-08-11T20:11:24;4.60;;;2.10;;
4500;SDS011;2263;54.654;9.410;2022-08-11T20:14:14;4.30;;;1.80;;
4500;SDS011;2263;54.654;9.410;2022-08-11T20:17:02;2.63;;;2.23;;
4500;SDS011;2263;54.654;9.410;2022-08-11T20:19:49;5.40;;;2.00;;
4500;SDS011;2263;54.654;9.410;2022-08-11T20:22:36;3.10;;;2.23;;
4500;SDS011;2263;54.654;9.410;2022-08-11T20:25:22;4.13;;;2.03;;
4500;SDS011;2263;54.654;9.410;2022-08-11T20:28:10;2.33;;;2.13;;
4500;SDS011;2263;54.654;9.410;2022-08-11T20:30:57;5.40;;;3.70;;
4500;SDS011;2263;54.654;9.410;2022-08-11T20:33:43;4.00;;;1.90;;
4500;SDS011;2263;54.654;9.410;2022-08-11T20:36:30;4.10;;;1.87;;
4500;SDS011;2263;54.654;9.410;2022-08-11T20:39:20;21.03;;;3.20;;
4500;SDS011;2263;54.654;9.410;2022-08-11T20:42:08;1.87;;;1.57;;
4500;SDS011;2263;54.654;9.410;2022-08-11T20:44:57;6.23;;;1.93;;
4500;SDS011;2263;54.654;9.410;2022-08-11T20:47:49;3.10;;;1.30;;
4500;SDS011;2263;54.654;9.410;2022-08-11T20:50:58;3.50;;;1.87;;
4500;SDS011;2263;54.654;9.410;2022-08-11T20:53:48;3.87;;;1.57;;
4500;SDS011;2263;54.654;9.410;2022-08-11T20:56:35;1.93;;;1.73;;
4500;SDS011;2263;54.654;9.410;2022-08-11T20:59:23;3.60;;;1.80;;
4500;SDS011;2263;54.654;9.410;2022-08-11T21:02:22;11.00;;;1.80;;
4500;SDS011;2263;54.654;9.410;2022-08-11T21:05:10;4.13;;;1.40;;
4500;SDS011;2263;54.654;9.410;2022-08-11T21:08:17;2.20;;;1.90;;
4500;SDS011;2263;54.654;9.410;2022-08-11T21:11:07;5.40;;;1.50;;
4500;SDS011;2263;54.654;9.410;2022-08-11T21:13:55;2.90;;;1.40;;
4500;SDS011;2263;54.654;9.410;2022-08-11T21:16:45;1.97;;;1.70;;
4500;SDS011;2263;54.654;9.410;2022-08-11T21:19:54;2.00;;;1.90;;
4500;SDS011;2263;54.654;9.410;2022-08-11T21:22:50;2.20;;;2.00;;
4500;SDS011;2263;54.654;9.410;2022-08-11T21:25:51;4.57;;;2.13;;
4500;SDS011;2263;54.654;9.410;2022-08-11T21:28:39;3.50;;;2.70;;
4500;SDS011;2263;54.654;9.410;2022-08-11T21:31:27;3.23;;;1.93;;
4500;SDS011;2263;54.654;9.410;2022-08-11T21:34:17;2.33;;;2.13;;
4500;SDS011;2263;54.654;9.410;2022-08-11T21:37:05;4.13;;;2.00;;
4500;SDS011;2263;54.654;9.410;2022-08-11T21:39:53;1.87;;;1.60;;
4500;SDS011;2263;54.654;9.410;2022-08-11T21:42:44;2.03;;;1.63;;
4500;SDS011;2263;54.654;9.410;2022-08-11T21:45:31;2.23;;;1.70;;
4500;SDS011;2263;54.654;9.410;2022-08-11T21:48:19;3.00;;;1.83;;
4500;SDS011;2263;54.654;9.410;2022-08-11T21:51:07;7.70;;;2.50;;
4500;SDS011;2263;54.654;9.410;2022-08-11T21:53:53;2.30;;;2.00;;
4500;SDS011;2263;54.654;9.410;2022-08-11T21:56:41;3.43;;;2.20;;
4500;SDS011;2263;54.654;9.410;2022-08-11T22:02:39;2.87;;;1.87;;